Time;durP1;ratioP1;P1;durP2;ratioP2;P2;SDS_P1;SDS_P2;PMS_P1;PMS_P2;Temp;Humidity;BMP_temperature;BMP_pressure;BME280_temperature;BME280_humidity;BME280_pressure;Samples;Min_cycle;Max_cycle;Signal;HPM_P1;HPM_P2
2021/08/24 00:01:36;;;;;;;6.60;5.27;;;;;;;;;;5052205;28;20437;-66
2021/08/24 00:04:02;;;;;;;8.60;7.20;;;;;;;;;;5053557;28;20763;-65
2021/08/24 00:06:28;;;;;;;7.13;5.83;;;;;;;;;;5052376;28;20430;-66
2021/08/24 00:08:54;;;;;;;7.33;6.43;;;;;;;;;;5053480;28;20410;-66
2021/08/24 00:11:20;;;;;;;6.77;5.00;;;;;;;;;;5052094;28;20490;-66
2021/08/24 00:13:46;;;;;;;5.77;4.70;;;;;;;;;;5053087;28;20495;-65
2021/08/24 00:16:14;;;;;;;6.83;5.40;;;;;;;;;;5034087;28;20452;-65
2021/08/24 00:18:40;;;;;;;6.13;5.10;;;;;;;;;;5053205;28;20414;-66
2021/08/24 00:21:06;;;;;;;5.40;4.73;;;;;;;;;;5048971;28;20457;-65
2021/08/24 00:23:32;;;;;;;5.10;4.60;;;;;;;;;;5033051;28;20442;-66
2021/08/24 00:25:59;;;;;;;4.33;3.63;;;;;;;;;;5034936;28;20462;-66
2021/08/24 00:28:26;;;;;;;4.00;3.20;;;;;;;;;;5035416;28;20444;-66
2021/08/24 00:30:52;;;;;;;3.00;2.70;;;;;;;;;;5052307;28;20402;-66
2021/08/24 00:33:19;;;;;;;3.40;3.10;;;;;;;;;;5053120;28;20504;-66
2021/08/24 00:35:45;;;;;;;4.27;3.20;;;;;;;;;;5047333;28;20426;-66
2021/08/24 00:38:13;;;;;;;2.57;2.37;;;;;;;;;;5049168;28;20430;-66
2021/08/24 00:40:39;;;;;;;4.17;3.20;;;;;;;;;;5052868;28;20406;-66
2021/08/24 00:43:09;;;;;;;3.97;3.57;;;;;;;;;;5052064;28;20620;-66
2021/08/24 00:45:36;;;;;;;4.57;3.67;;;;;;;;;;5053186;28;20406;-66
2021/08/24 00:48:02;;;;;;;4.00;3.70;;;;;;;;;;5038823;28;20427;-66
2021/08/24 00:50:30;;;;;;;4.63;4.10;;;;;;;;;;5033340;28;20433;-66
2021/08/24 00:52:59;;;;;;;3.57;3.27;;;;;;;;;;5043608;28;20488;-66
2021/08/24 00:55:27;;;;;;;4.00;3.60;;;;;;;;;;5052880;28;20409;-65
2021/08/24 00:57:58;;;;;;;4.43;3.93;;;;;;;;;;5040118;28;20429;-65
2021/08/24 01:00:26;;;;;;;5.63;4.00;;;;;;;;;;5033152;28;20423;-65
2021/08/24 01:02:52;;;;;;;10.80;3.17;;;;;;;;;;5033052;28;21030;-65
2021/08/24 01:05:18;;;;;;;3.30;3.00;;;;;;;;;;5033004;28;20617;-65
2021/08/24 01:07:46;;;;;;;3.40;3.10;;;;;;;;;;5032721;28;20754;-65
2021/08/24 01:10:12;;;;;;;2.53;2.33;;;;;;;;;;5046243;28;20422;-65
2021/08/24 01:12:44;;;;;;;2.70;2.50;;;;;;;;;;5051574;28;20466;-65
2021/08/24 01:15:19;;;;;;;8.77;4.10;;;;;;;;;;5045386;28;20517;-65
2021/08/24 01:17:49;;;;;;;2.90;2.20;;;;;;;;;;5033148;28;20922;-65
2021/08/24 01:20:29;;;;;;;4.23;2.70;;;;;;;;;;5032926;28;20449;-65
2021/08/24 01:23:14;;;;;;;6.37;2.60;;;;;;;;;;5044501;22;20574;-65
2021/08/24 01:25:59;;;;;;;2.60;2.07;;;;;;;;;;4993375;28;20416;-65
2021/08/24 01:28:25;;;;;;;4.30;2.30;;;;;;;;;;5003718;28;20419;-65
2021/08/24 01:31:10;;;;;;;2.73;2.43;;;;;;;;;;5013053;28;20764;-65
2021/08/24 01:33:36;;;;;;;2.93;2.40;;;;;;;;;;5000940;28;20492;-65
2021/08/24 01:36:16;;;;;;;3.43;3.07;;;;;;;;;;4993337;28;20444;-66
2021/08/24 01:38:49;;;;;;;3.57;2.57;;;;;;;;;;4993108;28;20447;-65
2021/08/24 01:41:18;;;;;;;2.60;2.20;;;;;;;;;;4993259;28;20404;-65
2021/08/24 01:43:50;;;;;;;3.70;2.20;;;;;;;;;;4993150;28;20454;-65
2021/08/24 01:46:20;;;;;;;2.73;2.07;;;;;;;;;;4994063;28;20428;-65
2021/08/24 01:48:48;;;;;;;2.77;2.20;;;;;;;;;;5008342;28;20791;-65
2021/08/24 01:51:18;;;;;;;4.03;2.40;;;;;;;;;;5016546;28;20486;-65
2021/08/24 01:54:04;;;;;;;2.73;2.10;;;;;;;;;;5014978;28;20823;-65
2021/08/24 01:56:35;;;;;;;3.03;2.07;;;;;;;;;;5015889;28;20435;-65
2021/08/24 01:59:18;;;;;;;2.47;2.00;;;;;;;;;;5014622;28;20427;-65
2021/08/24 02:01:53;;;;;;;2.60;1.87;;;;;;;;;;5014982;28;20411;-65
2021/08/24 02:04:35;;;;;;;3.67;1.97;;;;;;;;;;5015040;28;20439;-65
2021/08/24 02:07:03;;;;;;;3.33;2.13;;;;;;;;;;5015921;28;20404;-65
2021/08/24 02:09:49;;;;;;;5.87;2.80;;;;;;;;;;5014639;28;20435;-65
2021/08/24 02:12:17;;;;;;;2.63;2.30;;;;;;;;;;5016625;28;20502;-65
2021/08/24 02:14:43;;;;;;;4.40;2.10;;;;;;;;;;5015015;28;20498;-65
2021/08/24 02:17:12;;;;;;;4.43;2.20;;;;;;;;;;5001460;28;20435;-65
2021/08/24 02:19:40;;;;;;;2.80;2.27;;;;;;;;;;4996220;28;20793;-65
2021/08/24 02:22:08;;;;;;;2.83;2.07;;;;;;;;;;4995969;28;20416;-65
2021/08/24 02:24:37;;;;;;;4.30;2.00;;;;;;;;;;5028290;28;20438;-65
2021/08/24 02:27:07;;;;;;;4.20;2.23;;;;;;;;;;5033143;28;20500;-65
2021/08/24 02:29:34;;;;;;;3.60;2.47;;;;;;;;;;5017756;28;21029;-65
2021/08/24 02:32:01;;;;;;;3.40;2.13;;;;;;;;;;5015437;28;20408;-65
2021/08/24 02:34:54;;;;;;;4.60;2.53;;;;;;;;;;5028707;28;20850;-65
2021/08/24 02:37:24;;;;;;;2.80;2.10;;;;;;;;;;5032502;28;20415;-65
2021/08/24 02:39:56;;;;;;;3.87;2.33;;;;;;;;;;4998488;28;20766;-65
2021/08/24 02:42:26;;;;;;;2.83;2.10;;;;;;;;;;4996405;28;20417;-65
2021/08/24 02:45:01;;;;;;;4.23;2.10;;;;;;;;;;5031539;28;20435;-65
2021/08/24 02:47:27;;;;;;;6.23;2.10;;;;;;;;;;5036074;28;20398;-65
2021/08/24 02:49:53;;;;;;;3.40;2.63;;;;;;;;;;5033567;28;20426;-65
2021/08/24 02:52:20;;;;;;;7.93;2.53;;;;;;;;;;5024085;28;20465;-65
2021/08/24 02:54:47;;;;;;;2.83;2.30;;;;;;;;;;5021041;28;20980;-65
2021/08/24 02:57:14;;;;;;;3.20;2.33;;;;;;;;;;5011621;28;20434;-65
2021/08/24 02:59:40;;;;;;;6.13;2.20;;;;;;;;;;5009088;28;20454;-65
2021/08/24 03:02:07;;;;;;;3.97;2.23;;;;;;;;;;4995368;28;20894;-65
2021/08/24 03:04:33;;;;;;;2.80;2.17;;;;;;;;;;5009984;28;20923;-65
2021/08/24 03:07:06;;;;;;;3.37;2.27;;;;;;;;;;5014844;28;20399;-65
2021/08/24 03:09:33;;;;;;;3.40;2.60;;;;;;;;;;5014010;28;20803;-65
2021/08/24 03:12:02;;;;;;;4.47;2.40;;;;;;;;;;5014691;28;20407;-65
2021/08/24 03:14:32;;;;;;;3.20;2.20;;;;;;;;;;5013854;28;20464;-65
2021/08/24 03:17:01;;;;;;;3.40;2.17;;;;;;;;;;5014773;28;20495;-65
2021/08/24 03:19:30;;;;;;;3.17;1.80;;;;;;;;;;5013720;28;20428;-65
2021/08/24 03:21:58;;;;;;;2.77;2.23;;;;;;;;;;5014650;28;20395;-65
2021/08/24 03:24:24;;;;;;;5.23;2.30;;;;;;;;;;4996060;28;20542;-65
2021/08/24 03:26:50;;;;;;;3.53;2.30;;;;;;;;;;5014637;28;20408;-65
2021/08/24 03:29:19;;;;;;;3.77;2.47;;;;;;;;;;5003160;28;20432;-65
2021/08/24 03:31:47;;;;;;;3.70;2.00;;;;;;;;;;4995133;28;20947;-66
2021/08/24 03:34:13;;;;;;;3.80;2.17;;;;;;;;;;5001741;28;20503;-65
2021/08/24 03:36:39;;;;;;;6.27;2.57;;;;;;;;;;5014498;28;20411;-66
2021/08/24 03:39:05;;;;;;;3.97;2.37;;;;;;;;;;4996737;28;20428;-65
2021/08/24 03:41:31;;;;;;;4.27;2.60;;;;;;;;;;4994481;28;20441;-66
2021/08/24 03:43:57;;;;;;;6.20;2.50;;;;;;;;;;5001319;28;20444;-65
2021/08/24 03:46:23;;;;;;;5.10;3.40;;;;;;;;;;5014203;28;20423;-65
2021/08/24 03:48:49;;;;;;;3.70;2.80;;;;;;;;;;5007091;28;20921;-65
2021/08/24 03:51:15;;;;;;;4.23;2.70;;;;;;;;;;4994635;28;20412;-65
2021/08/24 03:53:41;;;;;;;6.20;3.33;;;;;;;;;;4999448;28;20467;-65
2021/08/24 03:56:08;;;;;;;5.13;2.90;;;;;;;;;;5014023;28;20880;-65
2021/08/24 03:58:34;;;;;;;4.67;2.57;;;;;;;;;;5013332;28;20950;-65
2021/08/24 04:01:00;;;;;;;3.30;2.27;;;;;;;;;;5014082;28;20927;-66
2021/08/24 04:03:27;;;;;;;6.50;3.00;;;;;;;;;;5010415;28;20442;-65
2021/08/24 04:06:00;;;;;;;5.17;3.10;;;;;;;;;;4994633;28;20409;-66
2021/08/24 04:08:26;;;;;;;5.77;3.43;;;;;;;;;;5006292;28;20463;-65
2021/08/24 04:10:53;;;;;;;5.53;2.67;;;;;;;;;;4994095;28;20818;-66
2021/08/24 04:13:19;;;;;;;4.10;2.57;;;;;;;;;;4995483;28;20464;-65
2021/08/24 04:15:45;;;;;;;4.20;2.60;;;;;;;;;;5013981;28;20438;-66
2021/08/24 04:18:11;;;;;;;8.20;2.83;;;;;;;;;;5012886;28;20403;-65
2021/08/24 04:20:39;;;;;;;4.27;2.80;;;;;;;;;;4994504;28;20779;-66
2021/08/24 04:23:05;;;;;;;4.30;2.90;;;;;;;;;;4994222;28;20507;-66
2021/08/24 04:25:31;;;;;;;5.93;2.83;;;;;;;;;;5012889;28;20942;-65
2021/08/24 04:27:57;;;;;;;13.10;2.73;;;;;;;;;;5014001;28;20408;-66
2021/08/24 04:30:23;;;;;;;5.07;3.43;;;;;;;;;;5012643;28;20435;-65
2021/08/24 04:32:49;;;;;;;4.73;3.30;;;;;;;;;;5013627;28;20909;-66
2021/08/24 04:35:17;;;;;;;5.60;3.40;;;;;;;;;;5012564;28;20784;-65
2021/08/24 04:37:44;;;;;;;5.20;3.60;;;;;;;;;;5013871;28;20407;-65
2021/08/24 04:40:10;;;;;;;4.63;3.17;;;;;;;;;;5011626;28;20984;-65
2021/08/24 04:42:36;;;;;;;6.43;3.60;;;;;;;;;;4993998;28;20452;-65
2021/08/24 04:45:03;;;;;;;5.50;3.60;;;;;;;;;;5007708;28;20848;-65
2021/08/24 04:47:29;;;;;;;7.33;3.50;;;;;;;;;;5013675;28;20404;-65
2021/08/24 04:49:55;;;;;;;7.13;3.73;;;;;;;;;;5000100;28;20511;-65
2021/08/24 04:52:21;;;;;;;7.90;3.17;;;;;;;;;;4994168;28;20451;-66
2021/08/24 04:54:47;;;;;;;5.90;3.70;;;;;;;;;;5005201;28;20498;-65
2021/08/24 04:57:13;;;;;;;5.77;3.60;;;;;;;;;;5013636;28;20410;-65
2021/08/24 04:59:39;;;;;;;10.93;4.20;;;;;;;;;;5002643;28;20432;-65
2021/08/24 05:02:06;;;;;;;8.30;3.70;;;;;;;;;;4993782;28;20905;-65
2021/08/24 05:04:32;;;;;;;6.53;4.27;;;;;;;;;;5002443;28;20434;-65
2021/08/24 05:06:58;;;;;;;7.07;4.13;;;;;;;;;;5013214;28;20403;-64
2021/08/24 05:09:24;;;;;;;6.03;3.70;;;;;;;;;;5011599;28;20768;-65
2021/08/24 05:11:50;;;;;;;6.47;4.70;;;;;;;;;;4998143;28;20424;-64
2021/08/24 05:14:16;;;;;;;6.53;4.20;;;;;;;;;;4993324;28;20464;-64
2021/08/24 05:16:42;;;;;;;6.90;4.60;;;;;;;;;;4993967;28;20411;-65
2021/08/24 05:19:09;;;;;;;5.83;3.57;;;;;;;;;;4998467;28;20427;-64
2021/08/24 05:21:36;;;;;;;4.90;3.37;;;;;;;;;;5014450;28;20407;-64
2021/08/24 05:24:02;;;;;;;5.90;4.17;;;;;;;;;;5015842;28;20835;-64
2021/08/24 05:26:28;;;;;;;5.93;4.00;;;;;;;;;;5017068;28;20411;-65
2021/08/24 05:28:54;;;;;;;6.97;4.50;;;;;;;;;;5013483;28;20436;-64
2021/08/24 05:31:20;;;;;;;8.43;4.90;;;;;;;;;;4997225;28;20547;-65
2021/08/24 05:33:46;;;;;;;5.90;4.60;;;;;;;;;;4997886;28;20546;-65
2021/08/24 05:36:12;;;;;;;6.20;3.93;;;;;;;;;;5016776;28;20491;-66
2021/08/24 05:38:39;;;;;;;5.60;3.80;;;;;;;;;;5015865;28;20411;-64
2021/08/24 05:41:05;;;;;;;7.87;4.70;;;;;;;;;;5017148;28;20416;-65
2021/08/24 05:43:32;;;;;;;5.90;4.00;;;;;;;;;;5016488;28;20478;-65
2021/08/24 05:46:02;;;;;;;14.67;5.20;;;;;;;;;;5015724;28;20445;-66
2021/08/24 05:48:29;;;;;;;11.00;5.33;;;;;;;;;;5014712;28;20438;-65
2021/08/24 05:50:55;;;;;;;4.90;3.60;;;;;;;;;;5015484;28;20427;-66
2021/08/24 05:53:21;;;;;;;6.37;4.40;;;;;;;;;;5016562;28;20545;-65
2021/08/24 05:55:47;;;;;;;6.93;4.03;;;;;;;;;;5015371;28;20430;-65
2021/08/24 05:58:13;;;;;;;5.47;4.20;;;;;;;;;;5016367;28;20424;-65
2021/08/24 06:00:39;;;;;;;9.47;5.23;;;;;;;;;;5015373;28;20485;-65
2021/08/24 06:03:05;;;;;;;5.20;4.30;;;;;;;;;;5016265;28;20431;-65
2021/08/24 06:05:32;;;;;;;11.30;5.40;;;;;;;;;;5015042;28;20436;-65
2021/08/24 06:07:58;;;;;;;7.03;5.30;;;;;;;;;;5015987;28;20408;-65
2021/08/24 06:10:24;;;;;;;6.90;5.23;;;;;;;;;;5002365;28;20443;-65
2021/08/24 06:12:50;;;;;;;8.10;5.67;;;;;;;;;;4996300;28;20424;-65
2021/08/24 06:15:17;;;;;;;7.00;4.50;;;;;;;;;;4994792;28;20977;-65
2021/08/24 06:17:46;;;;;;;5.73;4.20;;;;;;;;;;4996280;28;20411;-65
2021/08/24 06:20:12;;;;;;;10.40;5.80;;;;;;;;;;5006844;28;20514;-64
2021/08/24 06:22:38;;;;;;;7.83;5.50;;;;;;;;;;5013069;28;20466;-66
2021/08/24 06:25:04;;;;;;;6.80;5.27;;;;;;;;;;5004318;28;20433;-65
2021/08/24 06:27:30;;;;;;;7.10;4.83;;;;;;;;;;4996144;28;20529;-66
2021/08/24 06:29:56;;;;;;;5.77;4.80;;;;;;;;;;4995834;28;20930;-65
2021/08/24 06:32:28;;;;;;;7.10;5.27;;;;;;;;;;4995811;28;20420;-66
2021/08/24 06:34:54;;;;;;;8.40;5.03;;;;;;;;;;5003697;28;20455;-65
2021/08/24 06:37:20;;;;;;;5.80;5.17;;;;;;;;;;5015738;28;20851;-65
2021/08/24 06:39:46;;;;;;;6.17;5.13;;;;;;;;;;5014512;28;20438;-64
2021/08/24 06:42:13;;;;;;;6.80;5.47;;;;;;;;;;5015510;28;20487;-65
2021/08/24 06:44:39;;;;;;;4.90;4.37;;;;;;;;;;5014360;28;20424;-65
2021/08/24 06:47:05;;;;;;;6.47;4.70;;;;;;;;;;5015355;28;20772;-66
2021/08/24 06:49:31;;;;;;;6.10;5.13;;;;;;;;;;5014366;28;20916;-65
2021/08/24 06:51:59;;;;;;;5.67;3.70;;;;;;;;;;5015437;28;20400;-65
2021/08/24 06:54:25;;;;;;;5.57;4.90;;;;;;;;;;5010546;28;20456;-65
2021/08/24 06:56:51;;;;;;;6.20;5.20;;;;;;;;;;4995689;28;20459;-65
2021/08/24 06:59:17;;;;;;;5.90;5.30;;;;;;;;;;4997045;28;20467;-65
2021/08/24 07:01:44;;;;;;;7.10;5.13;;;;;;;;;;5015277;28;20399;-65
2021/08/24 07:04:10;;;;;;;7.17;6.33;;;;;;;;;;5014190;28;20446;-65
2021/08/24 07:06:37;;;;;;;8.30;5.67;;;;;;;;;;5014948;28;20419;-65
2021/08/24 07:09:03;;;;;;;7.33;5.20;;;;;;;;;;5015282;28;20435;-65
2021/08/24 07:11:29;;;;;;;8.67;5.50;;;;;;;;;;5013463;28;20478;-65
2021/08/24 07:13:56;;;;;;;6.77;5.50;;;;;;;;;;5013939;28;20991;-65
2021/08/24 07:16:22;;;;;;;7.40;5.43;;;;;;;;;;5011927;28;20437;-65
2021/08/24 07:18:49;;;;;;;7.33;5.53;;;;;;;;;;5015512;28;20407;-65
2021/08/24 07:21:16;;;;;;;7.67;5.17;;;;;;;;;;5014017;28;20431;-65
2021/08/24 07:23:43;;;;;;;5.97;4.80;;;;;;;;;;5025300;22;20495;-83
2021/08/24 07:26:09;;;;;;;6.70;5.73;;;;;;;;;;4999724;28;20459;-83
2021/08/24 07:28:35;;;;;;;5.47;4.33;;;;;;;;;;5015858;28;20420;-82
2021/08/24 07:31:01;;;;;;;9.40;4.10;;;;;;;;;;5017182;28;20420;-82
2021/08/24 07:33:27;;;;;;;4.93;4.10;;;;;;;;;;5018199;28;20447;-83
2021/08/24 07:35:53;;;;;;;4.20;3.80;;;;;;;;;;5017164;28;20521;-82
2021/08/24 07:38:19;;;;;;;4.83;4.33;;;;;;;;;;5017971;28;20526;-83
2021/08/24 07:40:46;;;;;;;9.50;4.53;;;;;;;;;;5016859;28;20434;-82
2021/08/24 07:43:12;;;;;;;5.17;4.67;;;;;;;;;;5015874;28;20415;-81
2021/08/24 07:45:39;;;;;;;4.73;4.03;;;;;;;;;;5013165;28;20527;-81
2021/08/24 07:48:05;;;;;;;5.37;4.47;;;;;;;;;;5015314;28;20408;-82
2021/08/24 07:50:31;;;;;;;5.50;4.77;;;;;;;;;;5014686;28;20467;-81
2021/08/24 07:52:57;;;;;;;6.13;4.13;;;;;;;;;;5015653;28;20400;-81
2021/08/24 07:55:23;;;;;;;4.97;4.47;;;;;;;;;;5013950;28;20455;-82
2021/08/24 07:57:49;;;;;;;5.37;4.70;;;;;;;;;;5014490;28;20451;-81
2021/08/24 08:00:15;;;;;;;6.37;5.60;;;;;;;;;;5010612;28;20428;-82
2021/08/24 08:02:41;;;;;;;6.27;5.67;;;;;;;;;;5015387;28;20428;-81
2021/08/24 08:05:08;;;;;;;6.20;5.00;;;;;;;;;;4995889;28;20451;-81
2021/08/24 08:07:34;;;;;;;8.07;5.10;;;;;;;;;;4998690;28;20414;-81
2021/08/24 08:10:00;;;;;;;5.90;3.90;;;;;;;;;;5015251;28;20830;-81
2021/08/24 08:12:26;;;;;;;6.93;4.27;;;;;;;;;;5017542;28;20423;-82
2021/08/24 08:14:52;;;;;;;6.97;5.23;;;;;;;;;;4999361;28;20459;-81
2021/08/24 08:17:18;;;;;;;6.00;5.03;;;;;;;;;;5021459;28;20985;-81
2021/08/24 08:19:44;;;;;;;7.17;5.20;;;;;;;;;;5019719;28;20423;-81
2021/08/24 08:22:10;;;;;;;6.07;5.10;;;;;;;;;;4999668;28;20951;-82
2021/08/24 08:24:36;;;;;;;5.57;5.03;;;;;;;;;;5017080;28;20461;-80
2021/08/24 08:27:02;;;;;;;10.33;5.13;;;;;;;;;;5018643;28;20420;-82
2021/08/24 08:29:28;;;;;;;5.70;4.93;;;;;;;;;;5018312;28;20415;-81
2021/08/24 08:31:57;;;;;;;6.40;5.67;;;;;;;;;;5016984;28;20432;-82
2021/08/24 08:34:23;;;;;;;7.10;5.20;;;;;;;;;;5018167;28;20971;-83
2021/08/24 08:36:50;;;;;;;7.70;5.77;;;;;;;;;;5017438;28;20439;-82
2021/08/24 08:39:16;;;;;;;8.60;6.03;;;;;;;;;;5017636;28;20459;-82
2021/08/24 08:41:54;;;;;;;10.03;5.73;;;;;;;;;;5016903;28;20500;-82
2021/08/24 08:44:23;;;;;;;7.07;5.00;;;;;;;;;;5020080;28;20455;-80
2021/08/24 08:46:58;;;;;;;9.47;5.80;;;;;;;;;;5019167;28;20798;-81
2021/08/24 08:49:27;;;;;;;7.00;5.83;;;;;;;;;;5002912;28;20415;-81
2021/08/24 08:51:53;;;;;;;7.03;4.80;;;;;;;;;;5017264;28;20450;-80
2021/08/24 08:54:39;;;;;;;7.07;5.33;;;;;;;;;;4999944;28;20470;-81
2021/08/24 08:57:18;;;;;;;6.93;5.67;;;;;;;;;;5002536;28;20428;-83
2021/08/24 08:59:52;;;;;;;6.93;5.27;;;;;;;;;;5001541;28;20959;-83
2021/08/24 09:02:26;;;;;;;6.50;5.20;;;;;;;;;;5015957;28;20423;-83
2021/08/24 09:04:52;;;;;;;6.70;5.70;;;;;;;;;;5019093;28;20435;-84
2021/08/24 09:07:24;;;;;;;7.13;5.43;;;;;;;;;;5002960;28;20416;-82
2021/08/24 09:09:51;;;;;;;8.50;6.33;;;;;;;;;;5017003;28;20450;-83
2021/08/24 09:12:17;;;;;;;8.57;6.80;;;;;;;;;;5020532;28;20483;-83
2021/08/24 09:14:46;;;;;;;8.97;7.00;;;;;;;;;;5019618;28;20470;-83
2021/08/24 09:17:12;;;;;;;10.33;5.50;;;;;;;;;;4982515;28;20416;-82
2021/08/24 09:19:42;;;;;;;6.90;5.33;;;;;;;;;;5001849;28;20423;-83
2021/08/24 09:22:09;;;;;;;8.60;5.70;;;;;;;;;;5019097;28;20436;-82
2021/08/24 09:24:36;;;;;;;8.17;6.10;;;;;;;;;;5001843;28;20462;-83
2021/08/24 09:27:10;;;;;;;8.93;5.70;;;;;;;;;;4998020;28;20428;-82
2021/08/24 09:29:41;;;;;;;7.63;5.47;;;;;;;;;;5019580;28;20454;-83
2021/08/24 09:32:08;;;;;;;8.73;6.10;;;;;;;;;;5017286;28;20436;-83
2021/08/24 09:34:39;;;;;;;8.37;5.60;;;;;;;;;;5018240;28;20474;-83
2021/08/24 09:37:06;;;;;;;7.20;5.77;;;;;;;;;;5001314;28;20442;-82
2021/08/24 09:39:49;;;;;;;6.83;5.63;;;;;;;;;;5023122;28;20427;-81
2021/08/24 09:42:16;;;;;;;7.07;5.00;;;;;;;;;;5022821;28;20427;-81
2021/08/24 09:44:42;;;;;;;8.80;5.17;;;;;;;;;;4997578;28;20817;-79
2021/08/24 09:47:18;;;;;;;6.33;5.07;;;;;;;;;;5025370;28;20918;-81
2021/08/24 09:49:45;;;;;;;5.50;4.90;;;;;;;;;;5028986;28;20797;-81
2021/08/24 09:52:25;;;;;;;6.27;5.00;;;;;;;;;;5015257;28;20440;-81
2021/08/24 09:54:53;;;;;;;6.90;5.03;;;;;;;;;;5028518;28;20462;-80
2021/08/24 09:57:33;;;;;;;5.40;4.43;;;;;;;;;;5027607;28;20443;-81
2021/08/24 10:00:01;;;;;;;4.20;3.57;;;;;;;;;;5027472;28;20431;-80
2021/08/24 10:02:48;;;;;;;5.40;3.53;;;;;;;;;;5007804;28;20492;-79
2021/08/24 10:05:32;;;;;;;4.50;3.53;;;;;;;;;;5024627;28;20431;-80
2021/08/24 10:08:01;;;;;;;3.87;3.07;;;;;;;;;;5016403;28;20400;-79
2021/08/24 10:10:37;;;;;;;4.70;3.73;;;;;;;;;;5022963;28;20963;-81
2021/08/24 10:13:22;;;;;;;3.27;2.97;;;;;;;;;;5038288;28;20380;-80
2021/08/24 10:15:50;;;;;;;3.43;3.00;;;;;;;;;;5026793;28;20427;-81
2021/08/24 10:18:24;;;;;;;5.10;2.80;;;;;;;;;;5027880;28;20388;-81
2021/08/24 10:20:52;;;;;;;3.47;3.00;;;;;;;;;;5007921;28;20433;-79
2021/08/24 10:23:24;;;;;;;3.40;2.63;;;;;;;;;;5020824;28;20440;-80
2021/08/24 10:25:52;;;;;;;3.67;2.80;;;;;;;;;;5020785;28;20450;-80
2021/08/24 10:28:20;;;;;;;3.90;3.13;;;;;;;;;;5023969;28;20412;-80
2021/08/24 10:30:46;;;;;;;4.43;3.43;;;;;;;;;;5021579;28;20512;-79
2021/08/24 10:33:17;;;;;;;4.77;3.40;;;;;;;;;;5024557;28;20415;-80
2021/08/24 10:35:43;;;;;;;4.03;3.17;;;;;;;;;;5005386;28;20991;-79
2021/08/24 10:38:16;;;;;;;4.73;3.60;;;;;;;;;;5024158;28;20407;-81
2021/08/24 10:40:46;;;;;;;4.30;3.40;;;;;;;;;;5023597;28;20424;-81
2021/08/24 10:43:15;;;;;;;4.00;2.80;;;;;;;;;;5025753;28;20490;-79
2021/08/24 10:46:03;;;;;;;5.10;3.50;;;;;;;;;;5023279;28;20469;-81
2021/08/24 10:48:31;;;;;;;3.60;2.97;;;;;;;;;;5032790;28;20392;-81
2021/08/24 10:50:57;;;;;;;4.07;3.57;;;;;;;;;;5019488;28;20455;-80
2021/08/24 10:53:29;;;;;;;4.53;3.70;;;;;;;;;;5025118;28;20513;-79
2021/08/24 10:55:57;;;;;;;4.30;3.47;;;;;;;;;;5019246;28;20843;-79
2021/08/24 10:58:27;;;;;;;4.70;3.80;;;;;;;;;;5001682;28;20431;-80
2021/08/24 11:00:53;;;;;;;6.17;3.90;;;;;;;;;;4999436;28;20939;-81
2021/08/24 11:03:38;;;;;;;3.33;2.60;;;;;;;;;;5019704;28;20428;-79
2021/08/24 11:06:23;;;;;;;5.07;3.00;;;;;;;;;;5018361;28;20423;-80
2021/08/24 11:08:49;;;;;;;4.07;3.07;;;;;;;;;;5018694;28;20446;-79
2021/08/24 11:11:34;;;;;;;3.50;2.87;;;;;;;;;;5016802;28;20423;-80
2021/08/24 11:14:09;;;;;;;3.60;2.70;;;;;;;;;;5018336;28;20469;-80
2021/08/24 11:16:35;;;;;;;3.90;3.33;;;;;;;;;;5017339;28;20427;-79
2021/08/24 11:19:10;;;;;;;3.70;2.47;;;;;;;;;;4999629;28;20411;-81
2021/08/24 11:21:55;;;;;;;3.53;2.70;;;;;;;;;;5021535;28;20419;-80
2021/08/24 11:24:24;;;;;;;4.40;3.40;;;;;;;;;;5005044;28;20454;-82
2021/08/24 11:27:07;;;;;;;4.70;3.10;;;;;;;;;;5012294;28;20452;-81
2021/08/24 11:29:40;;;;;;;3.93;3.30;;;;;;;;;;5005449;28;20897;-82
2021/08/24 11:32:26;;;;;;;4.10;2.87;;;;;;;;;;5017380;28;20424;-81
2021/08/24 11:35:18;;;;;;;5.10;2.90;;;;;;;;;;5024230;28;20979;-82
2021/08/24 11:37:56;;;;;;;3.63;2.30;;;;;;;;;;5004145;28;20431;-80
2021/08/24 11:40:37;;;;;;;3.33;2.23;;;;;;;;;;5070989;28;20556;-73
2021/08/24 11:43:06;;;;;;;3.40;2.53;;;;;;;;;;5049424;28;20414;-72
2021/08/24 11:45:37;;;;;;;3.00;2.47;;;;;;;;;;5050827;28;20413;-73
2021/08/24 11:48:08;;;;;;;4.20;2.80;;;;;;;;;;5050641;28;20469;-72
2021/08/24 11:50:52;;;;;;;3.30;2.40;;;;;;;;;;5050988;28;20405;-73
2021/08/24 11:53:38;;;;;;;2.40;1.83;;;;;;;;;;5050648;28;20397;-73
2021/08/24 11:56:04;;;;;;;2.90;2.60;;;;;;;;;;5058808;28;20504;-72
2021/08/24 11:58:34;;;;;;;2.80;1.80;;;;;;;;;;5050197;28;20563;-73
2021/08/24 12:01:04;;;;;;;4.03;2.63;;;;;;;;;;5052253;28;20890;-73
2021/08/24 12:03:31;;;;;;;4.60;2.87;;;;;;;;;;5070496;28;20762;-72
2021/08/24 12:06:02;;;;;;;5.37;3.30;;;;;;;;;;5068835;28;20403;-73
2021/08/24 12:08:29;;;;;;;8.53;2.90;;;;;;;;;;5070085;28;20425;-72
2021/08/24 12:10:55;;;;;;;3.60;2.67;;;;;;;;;;5069012;28;20802;-72
2021/08/24 12:13:27;;;;;;;4.90;2.30;;;;;;;;;;5070249;28;20471;-73
2021/08/24 12:16:08;;;;;;;5.80;2.50;;;;;;;;;;5068737;28;20413;-74
2021/08/24 12:18:34;;;;;;;3.50;2.47;;;;;;;;;;5069758;28;20456;-73
2021/08/24 12:21:22;;;;;;;4.20;2.40;;;;;;;;;;5067390;28;20454;-73
2021/08/24 12:23:48;;;;;;;3.30;2.23;;;;;;;;;;5070032;28;20412;-73
2021/08/24 12:26:20;;;;;;;3.50;3.00;;;;;;;;;;5058365;28;20445;-72
2021/08/24 12:28:46;;;;;;;6.47;2.80;;;;;;;;;;5069613;28;20518;-73
2021/08/24 12:31:20;;;;;;;6.27;2.60;;;;;;;;;;5064699;28;20430;-73
2021/08/24 12:33:47;;;;;;;3.20;2.13;;;;;;;;;;5050140;28;20399;-73
2021/08/24 12:36:22;;;;;;;3.10;2.47;;;;;;;;;;5052261;28;20486;-73
2021/08/24 12:38:52;;;;;;;7.60;2.47;;;;;;;;;;5071853;28;20464;-72
2021/08/24 12:41:31;;;;;;;3.50;2.00;;;;;;;;;;5070233;28;20437;-72
2021/08/24 12:44:15;;;;;;;3.57;2.67;;;;;;;;;;5069697;28;20873;-73
2021/08/24 12:46:51;;;;;;;7.77;3.03;;;;;;;;;;5069552;28;20452;-73
2021/08/24 12:49:18;;;;;;;3.40;2.60;;;;;;;;;;5069985;28;20444;-71
2021/08/24 12:52:04;;;;;;;5.00;2.80;;;;;;;;;;5050773;28;20438;-71
2021/08/24 12:54:42;;;;;;;4.47;2.40;;;;;;;;;;5036637;28;20846;-73
2021/08/24 12:57:14;;;;;;;2.60;2.10;;;;;;;;;;5047704;28;20433;-73
2021/08/24 12:59:47;;;;;;;3.60;2.30;;;;;;;;;;5055088;28;20449;-73
2021/08/24 13:02:13;;;;;;;3.20;2.47;;;;;;;;;;5054885;28;20426;-72
2021/08/24 13:04:45;;;;;;;3.20;2.33;;;;;;;;;;5049924;28;20512;-72
2021/08/24 13:07:19;;;;;;;2.50;1.60;;;;;;;;;;5054753;28;20433;-73
2021/08/24 13:09:47;;;;;;;3.60;2.00;;;;;;;;;;5056297;28;20961;-73
2021/08/24 13:12:15;;;;;;;3.23;1.70;;;;;;;;;;5055445;28;20426;-73
2021/08/24 13:14:48;;;;;;;3.87;2.50;;;;;;;;;;5055464;28;20409;-72
2021/08/24 13:17:23;;;;;;;3.20;2.00;;;;;;;;;;5047917;28;20422;-73
2021/08/24 13:19:51;;;;;;;2.80;1.80;;;;;;;;;;5036022;28;20448;-73
2021/08/24 13:22:22;;;;;;;9.43;3.00;;;;;;;;;;5045230;28;20483;-73
2021/08/24 13:24:49;;;;;;;3.43;2.70;;;;;;;;;;5055482;28;20452;-72
2021/08/24 13:27:15;;;;;;;2.80;2.23;;;;;;;;;;5047509;28;20962;-73
2021/08/24 13:29:42;;;;;;;2.90;2.00;;;;;;;;;;5053166;28;20528;-73
2021/08/24 13:32:29;;;;;;;2.83;2.03;;;;;;;;;;5054810;28;20434;-73
2021/08/24 13:34:56;;;;;;;3.57;1.90;;;;;;;;;;5055000;28;20424;-73
2021/08/24 13:37:34;;;;;;;2.87;1.77;;;;;;;;;;5054214;28;20504;-72
2021/08/24 13:40:05;;;;;;;4.40;1.93;;;;;;;;;;5055421;28;20468;-72
2021/08/24 13:42:32;;;;;;;2.23;1.40;;;;;;;;;;5044039;28;21017;-73
2021/08/24 13:44:58;;;;;;;3.33;1.73;;;;;;;;;;5036004;28;20769;-73
2021/08/24 13:47:24;;;;;;;2.40;1.63;;;;;;;;;;5045246;28;20437;-72
2021/08/24 13:49:52;;;;;;;2.90;2.00;;;;;;;;;;5055544;28;20398;-72
2021/08/24 13:52:27;;;;;;;2.60;1.90;;;;;;;;;;5046078;28;20947;-73
2021/08/24 13:54:54;;;;;;;3.97;2.10;;;;;;;;;;5035709;28;20945;-72
2021/08/24 13:57:24;;;;;;;2.47;1.50;;;;;;;;;;5038107;28;20429;-72
2021/08/24 13:59:59;;;;;;;2.40;1.67;;;;;;;;;;5037597;28;20458;-72
2021/08/24 14:02:26;;;;;;;2.80;1.70;;;;;;;;;;5043324;28;20425;-73
2021/08/24 14:04:53;;;;;;;2.70;1.60;;;;;;;;;;5056401;28;20744;-72
2021/08/24 14:07:22;;;;;;;4.20;1.80;;;;;;;;;;5053344;28;20446;-72
2021/08/24 14:09:50;;;;;;;3.73;2.13;;;;;;;;;;5056110;28;20452;-72
2021/08/24 14:12:21;;;;;;;2.30;1.57;;;;;;;;;;5043211;28;20430;-72
2021/08/24 14:14:53;;;;;;;4.33;2.00;;;;;;;;;;5035772;28;20887;-72
2021/08/24 14:17:22;;;;;;;4.03;2.40;;;;;;;;;;5035451;28;20430;-72
2021/08/24 14:19:48;;;;;;;2.70;2.13;;;;;;;;;;5036380;28;20508;-72
2021/08/24 14:22:14;;;;;;;3.03;2.10;;;;;;;;;;5043521;28;20426;-72
2021/08/24 14:24:41;;;;;;;3.20;1.97;;;;;;;;;;5058192;28;20494;-72
2021/08/24 14:27:09;;;;;;;6.93;2.00;;;;;;;;;;5057834;28;20413;-72
2021/08/24 14:29:38;;;;;;;1.80;1.40;;;;;;;;;;5058177;28;20426;-72
2021/08/24 14:32:05;;;;;;;2.83;2.10;;;;;;;;;;5051485;28;20765;-72
2021/08/24 14:34:31;;;;;;;3.93;2.07;;;;;;;;;;5037004;28;20773;-72
2021/08/24 14:36:58;;;;;;;2.90;1.97;;;;;;;;;;5040066;28;20524;-72
2021/08/24 14:39:27;;;;;;;4.80;2.20;;;;;;;;;;5054547;28;20473;-72
2021/08/24 14:41:55;;;;;;;3.03;2.33;;;;;;;;;;5053202;28;20435;-72
2021/08/24 14:44:24;;;;;;;4.47;2.87;;;;;;;;;;5036675;28;20402;-72
2021/08/24 14:46:55;;;;;;;4.90;2.80;;;;;;;;;;5049112;28;21034;-72
2021/08/24 14:49:32;;;;;;;3.77;2.40;;;;;;;;;;5056419;28;20856;-72
2021/08/24 14:51:59;;;;;;;3.70;2.60;;;;;;;;;;5052231;28;20433;-72
2021/08/24 14:54:35;;;;;;;3.87;2.67;;;;;;;;;;5035334;28;20409;-72
2021/08/24 14:57:20;;;;;;;2.93;2.33;;;;;;;;;;5038888;28;20929;-73